Time;durP1;ratioP1;P1;durP2;ratioP2;P2;SDS_P1;SDS_P2;PMS_P1;PMS_P2;Temp;Humidity;BMP_temperature;BMP_pressure;BME280_temperature;BME280_humidity;BME280_pressure;Samples;Min_cycle;Max_cycle;Signal;HPM_P1;HPM_P2
2021/11/05 00:01:10;;;;;;;;;;;;;;;-144.99;100.00;52499.06;5057313;28;19985;-65
2021/11/05 00:03:37;;;;;;;;;;;;;;;-144.99;100.00;52503.13;5053711;28;19997;-65
2021/11/05 00:06:03;;;;;;;;;;;;;;;-144.99;100.00;52525.56;5051432;28;20306;-65
2021/11/05 00:08:29;;;;;;;;;;;;;;;-144.99;100.00;52509.25;5051432;28;19981;-63
2021/11/05 00:10:56;;;;;;;;;;;;;;;-144.99;100.00;52452.16;5051459;28;19988;-64
2021/11/05 00:13:23;;;;;;;;;;;;;;;-144.99;100.00;52503.13;5048637;28;20350;-64
2021/11/05 00:15:50;;;;;;;;;;;;;;;-144.99;100.00;52480.72;5049653;28;19997;-65
2021/11/05 00:18:16;;;;;;;;;;;;;;;-144.99;100.00;52517.41;5047754;28;20100;-64
2021/11/05 00:20:43;;;;;;;;;;;;;;;-144.99;100.00;52513.31;5051177;28;19992;-65
2021/11/05 00:23:09;;;;;;;;;;;;;;;-144.99;100.00;52533.69;5050045;28;19993;-64
2021/11/05 00:25:36;;;;;;;;;;;;;;;-144.99;100.00;52497.00;5051702;28;19981;-64
2021/11/05 00:28:03;;;;;;;;;;;;;;;-144.99;100.00;52525.56;5050490;28;19985;-64
2021/11/05 00:30:31;;;;;;;;;;;;;;;-144.99;100.00;52513.31;5050903;28;20362;-64
2021/11/05 00:32:57;;;;;;;;;;;;;;;-144.99;100.00;52541.84;5050440;28;19997;-65
2021/11/05 00:35:24;;;;;;;;;;;;;;;-144.99;100.00;52517.41;5043090;28;19978;-65
2021/11/05 00:37:50;;;;;;;;;;;;;;;-144.99;100.00;52529.63;5048532;28;20358;-65
2021/11/05 00:40:17;;;;;;;;;;;;;;;-144.99;100.00;52509.25;5050832;28;19981;-64
2021/11/05 00:42:43;;;;;;;;;;;;;;;-144.99;100.00;52515.34;5048832;28;20004;-65
2021/11/05 00:45:10;;;;;;;;;;;;;;;-144.99;100.00;52456.25;5051249;28;19974;-66
2021/11/05 00:47:38;;;;;;;;;;;;;;;-144.99;100.00;52554.09;5042297;28;20071;-64
2021/11/05 00:50:05;;;;;;;;;;;;;;;-144.99;100.00;52488.84;5042377;28;20331;-64
2021/11/05 00:52:31;;;;;;;;;;;;;;;-144.99;100.00;52505.16;5050034;28;20004;-64
2021/11/05 00:54:58;;;;;;;;;;;;;;;-144.99;100.00;52468.47;5050201;28;19981;-64
2021/11/05 00:57:24;;;;;;;;;;;;;;;-144.99;100.00;52501.09;5050038;28;20016;-64
2021/11/05 00:59:51;;;;;;;;;;;;;;;-144.99;100.00;52472.56;5050683;28;19981;-64
2021/11/05 01:02:17;;;;;;;;;;;;;;;-144.99;100.00;52488.84;5050195;28;19997;-64
2021/11/05 01:04:45;;;;;;;;;;;;;;;-144.99;100.00;52488.84;5050025;28;20437;-63
2021/11/05 01:07:12;;;;;;;;;;;;;;;-144.99;100.00;52497.00;5050273;28;19988;-64
2021/11/05 01:09:38;;;;;;;;;;;;;;;-144.99;100.00;52525.56;5050032;28;20076;-64
2021/11/05 01:12:05;;;;;;;;;;;;;;;-144.99;100.00;52476.63;5050024;28;20005;-64
2021/11/05 01:14:31;;;;;;;;;;;;;;;-144.99;100.00;52509.25;5040706;28;20439;-64
2021/11/05 01:16:58;;;;;;;;;;;;;;;-144.99;100.00;52525.56;5050152;28;19993;-64
2021/11/05 01:19:25;;;;;;;;;;;;;;;-144.99;100.00;52488.84;5050428;28;19973;-64
2021/11/05 01:21:53;;;;;;;;;;;;;;;-144.99;100.00;52509.25;5050316;28;20305;-64
2021/11/05 01:24:19;;;;;;;;;;;;;;;-144.99;100.00;52480.72;5050508;28;19989;-64
2021/11/05 01:26:45;;;;;;;;;;;;;;;-144.99;100.00;52519.44;5049993;28;19992;-64
2021/11/05 01:29:12;;;;;;;;;;;;;;;-144.99;100.00;52509.25;5050543;28;19995;-64
2021/11/05 01:31:38;;;;;;;;;;;;;;;-144.99;100.00;52501.09;5050574;28;19981;-64
2021/11/05 01:34:05;;;;;;;;;;;;;;;-144.99;100.00;52513.31;5050221;28;19998;-63
2021/11/05 01:36:32;;;;;;;;;;;;;;;-144.99;100.00;52488.84;5049799;28;20008;-63
2021/11/05 01:38:59;;;;;;;;;;;;;;;-144.99;100.00;52509.25;5050312;28;19985;-63
2021/11/05 01:41:26;;;;;;;;;;;;;;;-144.99;100.00;52513.31;5049834;28;19981;-64
2021/11/05 01:43:52;;;;;;;;;;;;;;;-144.99;100.00;52521.47;5049853;28;20088;-63
2021/11/05 01:46:19;;;;;;;;;;;;;;;-144.99;100.00;52484.78;5044700;28;20442;-65
2021/11/05 01:48:45;;;;;;;;;;;;;;;-144.99;100.00;52511.28;5053558;28;19973;-64
2021/11/05 01:51:12;;;;;;;;;;;;;;;-144.99;100.00;52484.78;5046755;28;20001;-64
2021/11/05 01:53:38;;;;;;;;;;;;;;;-144.99;100.00;52537.78;5053824;28;20001;-65
2021/11/05 01:56:06;;;;;;;;;;;;;;;-144.99;100.00;52562.25;5053343;28;19981;-65
2021/11/05 01:58:32;;;;;;;;;;;;;;;-144.99;100.00;52550.00;5053887;28;20001;-64
2021/11/05 02:00:59;;;;;;;;;;;;;;;-144.99;100.00;52492.94;5054533;28;19992;-64
2021/11/05 02:03:25;;;;;;;;;;;;;;;-144.99;100.00;52488.84;5063135;28;19997;-65
2021/11/05 02:05:52;;;;;;;;;;;;;;;-144.99;100.00;52492.94;5068809;28;19981;-65
2021/11/05 02:08:20;;;;;;;;;;;;;;;-144.99;100.00;52468.47;5066250;28;20004;-64
2021/11/05 02:10:47;;;;;;;;;;;;;;;-144.99;100.00;52529.63;5063721;28;20237;-65
2021/11/05 02:13:17;;;;;;;;;;;;;;;-144.99;100.00;52513.31;5046118;28;20084;-64
2021/11/05 02:15:44;;;;;;;;;;;;;;;-144.99;100.00;52484.78;5052238;28;19996;-70
2021/11/05 02:18:10;;;;;;;;;;;;;;;-144.99;100.00;52501.09;5041934;28;19997;-71
2021/11/05 02:20:38;;;;;;;;;;;;;;;-144.99;100.00;52484.78;5053033;28;19987;-71
2021/11/05 02:23:06;;;;;;;;;;;;;;;-144.99;100.00;52458.28;5053092;28;19997;-72
2021/11/05 02:25:32;;;;;;;;;;;;;;;-144.99;100.00;52509.25;5053572;28;20042;-71
2021/11/05 02:27:59;;;;;;;;;;;;;;;-144.99;100.00;52492.94;5053004;28;19989;-71
2021/11/05 02:30:25;;;;;;;;;;;;;;;-144.99;100.00;52490.91;5053590;28;20235;-71
2021/11/05 02:32:52;;;;;;;;;;;;;;;-144.99;100.00;52521.47;5052973;28;20001;-69
2021/11/05 02:35:18;;;;;;;;;;;;;;;-144.99;100.00;52497.00;5050026;28;19980;-69
2021/11/05 02:37:46;;;;;;;;;;;;;;;-144.99;100.00;52472.56;5052974;28;20067;-68
2021/11/05 02:40:14;;;;;;;;;;;;;;;-144.99;100.00;52513.31;5053674;28;19982;-69
2021/11/05 02:42:40;;;;;;;;;;;;;;;-144.99;100.00;52505.16;5052696;28;19963;-69
2021/11/05 02:45:08;;;;;;;;;;;;;;;-144.99;100.00;52513.31;5044919;28;19982;-69
2021/11/05 02:47:34;;;;;;;;;;;;;;;-144.99;100.00;52509.25;5052628;28;19977;-69
2021/11/05 02:50:01;;;;;;;;;;;;;;;-144.99;100.00;52521.47;5053136;28;19984;-68
2021/11/05 02:52:28;;;;;;;;;;;;;;;-144.99;100.00;52497.00;5052521;28;20004;-69
2021/11/05 02:54:54;;;;;;;;;;;;;;;-144.99;100.00;52511.28;5052610;28;19981;-68
2021/11/05 02:57:22;;;;;;;;;;;;;;;-144.99;100.00;52484.78;5052206;28;19997;-68
2021/11/05 02:59:48;;;;;;;;;;;;;;;-144.99;100.00;52494.97;5051773;28;19992;-71
2021/11/05 03:02:15;;;;;;;;;;;;;;;-144.99;100.00;52519.44;5052762;28;20485;-69
2021/11/05 03:04:41;;;;;;;;;;;;;;;-144.99;100.00;52517.41;5052476;28;19988;-68
2021/11/05 03:07:09;;;;;;;;;;;;;;;-144.99;100.00;52488.84;5052221;28;19981;-68
2021/11/05 03:09:36;;;;;;;;;;;;;;;-144.99;100.00;52492.94;5052408;28;19981;-68
2021/11/05 03:12:03;;;;;;;;;;;;;;;-144.99;100.00;52492.94;5051994;28;20005;-67
2021/11/05 03:14:31;;;;;;;;;;;;;;;-144.99;100.00;52525.56;5051780;28;20323;-67
2021/11/05 03:16:58;;;;;;;;;;;;;;;-144.99;100.00;52494.97;5052565;28;19993;-67
2021/11/05 03:19:24;;;;;;;;;;;;;;;-144.99;100.00;52488.84;5052624;28;20076;-67
2021/11/05 03:21:51;;;;;;;;;;;;;;;-144.99;100.00;52533.69;5052104;28;19981;-67
2021/11/05 03:24:18;;;;;;;;;;;;;;;-144.99;100.00;52499.06;5052345;28;19978;-67
2021/11/05 03:26:44;;;;;;;;;;;;;;;-144.99;100.00;52517.41;5051871;28;19990;-67
2021/11/05 03:29:11;;;;;;;;;;;;;;;-144.99;100.00;52509.25;5052311;28;20434;-66
2021/11/05 03:31:39;;;;;;;;;;;;;;;-144.99;100.00;52501.09;5052245;28;20418;-66
2021/11/05 03:34:05;;;;;;;;;;;;;;;-144.99;100.00;52492.94;5052224;28;19997;-66
2021/11/05 03:36:32;;;;;;;;;;;;;;;-144.99;100.00;52537.78;5052979;28;20442;-66
2021/11/05 03:38:59;;;;;;;;;;;;;;;-144.99;100.00;52525.56;5054375;28;19981;-66
2021/11/05 03:41:25;;;;;;;;;;;;;;;-144.99;100.00;52497.00;5067199;28;20442;-65
2021/11/05 03:43:52;;;;;;;;;;;;;;;-144.99;100.00;52509.25;5062099;28;20116;-65
2021/11/05 03:46:18;;;;;;;;;;;;;;;-144.99;100.00;52480.72;5058369;28;19974;-64
2021/11/05 03:48:46;;;;;;;;;;;;;;;-144.99;100.00;52529.63;5068196;28;19977;-64
2021/11/05 03:51:12;;;;;;;;;;;;;;;-144.99;100.00;52501.09;5071302;28;19988;-64
2021/11/05 03:53:39;;;;;;;;;;;;;;;-144.99;100.00;52488.84;5069065;28;20056;-65
2021/11/05 03:56:06;;;;;;;;;;;;;;;-144.99;100.00;52529.63;5068189;28;20047;-65
2021/11/05 03:58:32;;;;;;;;;;;;;;;-144.99;100.00;52497.00;5069900;28;20054;-64
2021/11/05 04:00:59;;;;;;;;;;;;;;;-144.99;100.00;52525.56;5070413;28;20040;-65
2021/11/05 04:03:25;;;;;;;;;;;;;;;-144.99;100.00;52472.56;5069417;28;20057;-66
2021/11/05 04:05:53;;;;;;;;;;;;;;;-144.99;100.00;52474.59;5069520;28;19981;-65
2021/11/05 04:08:19;;;;;;;;;;;;;;;-144.99;100.00;52492.94;5069334;28;19981;-65
2021/11/05 04:10:47;;;;;;;;;;;;;;;-144.99;100.00;52490.91;5068973;28;20008;-65
2021/11/05 04:13:13;;;;;;;;;;;;;;;-144.99;100.00;52517.41;5090841;22;20038;-65
2021/11/05 04:15:40;;;;;;;;;;;;;;;-144.99;100.00;52509.25;5090398;28;20007;-63
2021/11/05 04:18:06;;;;;;;;;;;;;;;-144.99;100.00;52525.56;5090390;28;19983;-64
2021/11/05 04:20:34;;;;;;;;;;;;;;;-144.99;100.00;52492.94;5086239;28;19935;-64
2021/11/05 04:23:05;;;;;;;;;;;;;;;-144.99;100.00;52492.94;5087775;28;20244;-66
2021/11/05 04:25:32;;;;;;;;;;;;;;;-144.99;100.00;52505.16;5090175;28;19981;-64
2021/11/05 04:27:58;;;;;;;;;;;;;;;-144.99;100.00;52513.31;5089267;28;20306;-66
2021/11/05 04:30:25;;;;;;;;;;;;;;;-144.99;100.00;52513.31;5089681;28;20449;-65
2021/11/05 04:32:51;;;;;;;;;;;;;;;-144.99;100.00;52505.16;5089727;28;20007;-64
2021/11/05 04:35:18;;;;;;;;;;;;;;;-144.99;100.00;52519.44;5089611;28;19954;-65
2021/11/05 04:37:44;;;;;;;;;;;;;;;-144.99;100.00;52527.59;5089497;28;20427;-65
2021/11/05 04:40:13;;;;;;;;;;;;;;;-144.99;100.00;52513.31;5089037;28;20478;-62
2021/11/05 04:42:40;;;;;;;;;;;;;;;-144.99;100.00;52494.97;5088751;28;20012;-62
2021/11/05 04:45:06;;;;;;;;;;;;;;;-144.99;100.00;52501.09;5088850;28;19977;-63
2021/11/05 04:47:33;;;;;;;;;;;;;;;-144.99;100.00;52484.78;5089375;28;20433;-62
2021/11/05 04:50:02;;;;;;;;;;;;;;;-144.99;100.00;52521.47;5089311;28;19980;-61
2021/11/05 04:52:28;;;;;;;;;;;;;;;-144.99;100.00;52499.06;5089548;28;20044;-60
2021/11/05 04:54:54;;;;;;;;;;;;;;;-144.99;100.00;52501.09;5088887;28;19986;-59
2021/11/05 04:57:22;;;;;;;;;;;;;;;-144.99;100.00;52492.94;5088821;28;20000;-62
2021/11/05 04:59:49;;;;;;;;;;;;;;;-144.99;100.00;52484.78;5088993;28;19980;-63
2021/11/05 05:02:17;;;;;;;;;;;;;;;-144.99;100.00;52501.09;5089015;28;20057;-62
2021/11/05 05:04:45;;;;;;;;;;;;;;;-144.99;100.00;52509.25;5089000;28;19993;-63
2021/11/05 05:07:12;;;;;;;;;;;;;;;-144.99;100.00;52519.44;5088913;28;20501;-63
2021/11/05 05:09:38;;;;;;;;;;;;;;;-144.99;100.00;52521.47;5091962;28;19980;-62
2021/11/05 05:12:05;;;;;;;;;;;;;;;-144.99;100.00;52501.09;5108998;28;20000;-62
2021/11/05 05:14:33;;;;;;;;;;;;;;;-144.99;100.00;52529.63;5089695;28;20226;-62
2021/11/05 05:16:59;;;;;;;;;;;;;;;-144.99;100.00;52476.63;5089056;28;20452;-65
2021/11/05 05:19:25;;;;;;;;;;;;;;;-144.99;100.00;52525.56;5089256;28;20367;-63
2021/11/05 05:21:52;;;;;;;;;;;;;;;-144.99;100.00;52509.25;5092469;28;19984;-67
2021/11/05 05:24:18;;;;;;;;;;;;;;;-144.99;100.00;52537.78;5112966;27;19980;-66
2021/11/05 05:26:45;;;;;;;;;;;;;;;-144.99;100.00;52492.94;5112608;28;19980;-66
2021/11/05 05:29:11;;;;;;;;;;;;;;;-144.99;100.00;52513.31;5113358;28;20421;-67
2021/11/05 05:31:39;;;;;;;;;;;;;;;-144.99;100.00;52517.41;5113381;28;20348;-66
2021/11/05 05:34:05;;;;;;;;;;;;;;;-144.99;100.00;52529.63;5113146;28;20027;-68
2021/11/05 05:36:31;;;;;;;;;;;;;;;-144.99;100.00;52521.47;5096325;28;19977;-68
2021/11/05 05:38:58;;;;;;;;;;;;;;;-144.99;100.00;52505.16;5092962;28;20027;-67
2021/11/05 05:41:24;;;;;;;;;;;;;;;-144.99;100.00;52480.72;5092124;28;19984;-67
2021/11/05 05:43:51;;;;;;;;;;;;;;;-144.99;100.00;52501.09;5090967;28;20019;-65
2021/11/05 05:46:17;;;;;;;;;;;;;;;-144.99;100.00;52517.41;5092841;28;19980;-67
2021/11/05 05:48:45;;;;;;;;;;;;;;;-144.99;100.00;52509.25;5092796;28;19981;-64
2021/11/05 05:51:11;;;;;;;;;;;;;;;-144.99;100.00;52492.94;5104871;28;19984;-65
2021/11/05 05:53:37;;;;;;;;;;;;;;;-144.99;100.00;52480.72;5112805;28;20003;-66
2021/11/05 05:56:06;;;;;;;;;;;;;;;-144.99;100.00;52499.06;5112370;28;19981;-65
2021/11/05 05:58:32;;;;;;;;;;;;;;;-144.99;100.00;52545.94;5112660;28;20064;-66
2021/11/05 06:00:59;;;;;;;;;;;;;;;-144.99;100.00;52497.00;5113189;28;20002;-71
2021/11/05 06:03:25;;;;;;;;;;;;;;;-144.99;100.00;52537.78;4389553;28;10000048;-70
2021/11/05 06:05:53;;;;;;;;;;;;;;;-144.99;100.00;52501.09;5093631;28;19924;-70
2021/11/05 06:08:19;;;;;;;;;;;;;;;-144.99;100.00;52529.63;5081050;28;20004;-71
2021/11/05 06:10:45;;;;;;;;;;;;;;;-144.99;100.00;52492.94;5093831;28;19995;-72
2021/11/05 06:13:12;;;;;;;;;;;;;;;-144.99;100.00;52521.47;5091016;28;20087;-71
2021/11/05 06:15:38;;;;;;;;;;;;;;;-144.99;100.00;52505.16;5094420;28;19973;-71
2021/11/05 06:18:05;;;;;;;;;;;;;;;-144.99;100.00;52501.09;5092658;28;20000;-71
2021/11/05 06:20:31;;;;;;;;;;;;;;;-144.99;100.00;52570.38;5087991;28;19985;-71
2021/11/05 06:22:59;;;;;;;;;;;;;;;-144.99;100.00;52545.94;5106062;28;20000;-71
2021/11/05 06:25:25;;;;;;;;;;;;;;;-144.99;100.00;52533.69;5110113;28;19984;-71
2021/11/05 06:27:52;;;;;;;;;;;;;;;-144.99;100.00;52492.94;5109547;28;19988;-71
2021/11/05 06:30:18;;;;;;;;;;;;;;;-144.99;100.00;52513.31;5109858;28;19984;-71
2021/11/05 06:32:44;;;;;;;;;;;;;;;-144.99;100.00;52501.09;5109909;27;20000;-70
2021/11/05 06:35:11;;;;;;;;;;;;;;;-144.99;100.00;52513.31;5103215;28;19980;-71
2021/11/05 06:37:38;;;;;;;;;;;;;;;-144.99;100.00;52492.94;5088089;28;19981;-71
2021/11/05 06:40:06;;;;;;;;;;;;;;;-144.99;100.00;52501.09;5090634;28;19984;-71
2021/11/05 06:42:32;;;;;;;;;;;;;;;-144.99;100.00;52566.31;5093413;28;19999;-71
2021/11/05 06:44:59;;;;;;;;;;;;;;;-144.99;100.00;52505.16;5088100;28;19988;-71
2021/11/05 06:47:25;;;;;;;;;;;;;;;-144.99;100.00;52484.78;5088620;28;19992;-71
2021/11/05 06:49:52;;;;;;;;;;;;;;;-144.99;100.00;52480.72;5102610;28;19984;-71
2021/11/05 06:52:18;;;;;;;;;;;;;;;-144.99;100.00;52525.56;5108748;28;20537;-72
2021/11/05 06:54:45;;;;;;;;;;;;;;;-144.99;100.00;52480.72;5095891;27;19988;-71
2021/11/05 06:57:15;;;;;;;;;;;;;;;-144.99;100.00;52545.94;5088739;28;19988;-71
2021/11/05 06:59:42;;;;;;;;;;;;;;;-144.99;100.00;52492.94;5089007;28;19996;-71
2021/11/05 07:02:08;;;;;;;;;;;;;;;-144.99;100.00;52480.72;5089363;28;20000;-71
2021/11/05 07:04:35;;;;;;;;;;;;;;;-144.99;100.00;52488.84;5086852;28;19984;-71
2021/11/05 07:07:01;;;;;;;;;;;;;;;-144.99;100.00;52517.41;5109105;28;19988;-70
2021/11/05 07:09:28;;;;;;;;;;;;;;;-144.99;100.00;52525.56;5109511;28;19990;-71
2021/11/05 07:11:54;;;;;;;;;;;;;;;-144.99;100.00;52501.09;5109450;28;19984;-71
2021/11/05 07:14:22;;;;;;;;;;;;;;;-144.99;100.00;52492.94;5091400;28;19981;-71
2021/11/05 07:16:48;;;;;;;;;;;;;;;-144.99;100.00;52484.78;5098471;28;19991;-71
2021/11/05 07:19:14;;;;;;;;;;;;;;;-144.99;100.00;52492.94;5104710;28;20000;-71
2021/11/05 07:21:41;;;;;;;;;;;;;;;-144.99;100.00;52464.41;5096745;28;20388;-71
2021/11/05 07:24:08;;;;;;;;;;;;;;;-144.99;100.00;52525.56;5104208;28;19996;-71
2021/11/05 07:26:38;;;;;;;;;;;;;;;-144.99;100.00;52464.41;5090553;28;19981;-71
2021/11/05 07:29:05;;;;;;;;;;;;;;;-144.99;100.00;52494.97;5091680;28;20011;-71
2021/11/05 07:31:33;;;;;;;;;;;;;;;-144.99;100.00;52497.00;5091328;28;19984;-71
2021/11/05 07:34:00;;;;;;;;;;;;;;;-144.99;100.00;52492.94;5091396;28;20099;-71
2021/11/05 07:36:27;;;;;;;;;;;;;;;-144.99;100.00;52521.47;5090790;28;19982;-71
2021/11/05 07:38:54;;;;;;;;;;;;;;;-144.99;100.00;52505.16;5092756;28;20053;-71
2021/11/05 07:41:21;;;;;;;;;;;;;;;-144.99;100.00;52509.25;5104924;28;19984;-71
2021/11/05 07:43:47;;;;;;;;;;;;;;;-144.99;100.00;52513.31;5100000;28;19992;-72
2021/11/05 07:46:13;;;;;;;;;;;;;;;-144.99;100.00;52501.09;5090359;28;20017;-71
2021/11/05 07:48:42;;;;;;;;;;;;;;;-144.99;100.00;52488.84;5090414;28;19988;-71
2021/11/05 07:51:08;;;;;;;;;;;;;;;-144.99;100.00;52480.72;5090148;28;19985;-71
2021/11/05 07:53:34;;;;;;;;;;;;;;;-144.99;100.00;52492.94;5089353;28;20031;-71
2021/11/05 07:56:01;;;;;;;;;;;;;;;-144.99;100.00;52497.00;5088868;28;19999;-71
2021/11/05 07:58:27;;;;;;;;;;;;;;;-144.99;100.00;52488.84;5087827;28;20000;-72
2021/11/05 08:00:54;;;;;;;;;;;;;;;-144.99;100.00;52492.94;5088161;28;19985;-72
2021/11/05 08:03:21;;;;;;;;;;;;;;;-144.99;100.00;52501.09;5099689;28;19997;-71
2021/11/05 08:05:49;;;;;;;;;;;;;;;-144.99;100.00;52476.63;5080404;28;19984;-71
2021/11/05 08:08:16;;;;;;;;;;;;;;;-144.99;100.00;52476.63;5090145;28;19984;-72
2021/11/05 08:10:43;;;;;;;;;;;;;;;-144.99;100.00;52468.47;5092816;28;19984;-72
2021/11/05 08:13:10;;;;;;;;;;;;;;;-144.99;100.00;52460.31;5091995;28;19993;-72
2021/11/05 08:15:37;;;;;;;;;;;;;;;-144.99;100.00;52456.25;5090229;28;20005;-73
2021/11/05 08:18:03;;;;;;;;;;;;;;;-144.99;100.00;52472.56;5088623;28;19977;-72
2021/11/05 08:20:30;;;;;;;;;;;;;;;-144.99;100.00;52456.25;5088502;28;19984;-72
2021/11/05 08:22:57;;;;;;;;;;;;;;;-144.99;100.00;52501.09;5088221;28;20299;-69
2021/11/05 08:25:26;;;;;;;;;;;;;;;-144.99;100.00;52474.59;5087730;28;20375;-70
2021/11/05 08:27:53;;;;;;;;;;;;;;;-144.99;100.00;52484.78;5087597;28;20079;-72
2021/11/05 08:30:22;;;;;;;;;;;;;;;-144.99;100.00;52472.56;5087958;28;19984;-72
2021/11/05 08:32:49;;;;;;;;;;;;;;;-144.99;100.00;52472.56;5087510;28;20570;-72
2021/11/05 08:35:16;;;;;;;;;;;;;;;-144.99;100.00;52488.84;5082006;28;19977;-72
2021/11/05 08:37:43;;;;;;;;;;;;;;;-144.99;100.00;52448.09;5074089;28;20036;-72
2021/11/05 08:40:11;;;;;;;;;;;;;;;-144.99;100.00;52427.72;5087350;28;20007;-71
2021/11/05 08:42:38;;;;;;;;;;;;;;;-144.99;100.00;52492.94;5086999;28;20044;-72
2021/11/05 08:45:06;;;;;;;;;;;;;;;-144.99;100.00;52480.72;5087429;28;19973;-70
2021/11/05 08:47:35;;;;;;;;;;;;;;;-144.99;100.00;52448.09;5087552;28;20042;-70
2021/11/05 08:50:02;;;;;;;;;;;;;;;-144.99;100.00;52509.25;5088142;28;19989;-70
2021/11/05 08:52:28;;;;;;;;;;;;;;;-144.99;100.00;52505.16;5095667;28;20000;-70
2021/11/05 08:54:55;;;;;;;;;;;;;;;-144.99;100.00;52448.09;5108528;28;19984;-70
2021/11/05 08:57:23;;;;;;;;;;;;;;;-144.99;100.00;52505.16;5107275;28;20370;-70
2021/11/05 08:59:49;;;;;;;;;;;;;;;-144.99;100.00;52468.47;5106103;28;19996;-70
2021/11/05 09:02:17;;;;;;;;;;;;;;;-144.99;100.00;52460.31;5087389;28;19996;-71
2021/11/05 09:04:43;;;;;;;;;;;;;;;-144.99;100.00;52439.94;5076593;28;19991;-71
2021/11/05 09:07:10;;;;;;;;;;;;;;;-144.99;100.00;52435.88;5099640;28;20444;-70
2021/11/05 09:09:36;;;;;;;;;;;;;;;-144.99;100.00;52476.63;5100530;28;19979;-70
2021/11/05 09:12:02;;;;;;;;;;;;;;;-144.99;100.00;52462.34;5087340;28;19995;-70
2021/11/05 09:14:30;;;;;;;;;;;;;;;-144.99;100.00;52444.03;5080430;28;20071;-71
2021/11/05 09:16:57;;;;;;;;;;;;;;;-144.99;100.00;52423.63;5087848;28;19980;-72
2021/11/05 09:19:23;;;;;;;;;;;;;;;-144.99;95.39;52431.78;5087538;28;20110;-69
2021/11/05 09:21:49;;;;;;;;;;;;;;;-144.99;92.73;52407.31;5086892;28;20011;-69
2021/11/05 09:24:16;;;;;;;;;;;;;;;-144.99;93.08;52395.09;5086813;28;19992;-69
2021/11/05 09:26:42;;;;;;;;;;;;;;;-144.99;93.40;52448.09;5087195;28;19984;-69
2021/11/05 09:29:08;;;;;;;;;;;;;;;-144.99;94.41;52431.78;5086768;28;20488;-69
2021/11/05 09:31:36;;;;;;;;;;;;;;;-144.99;94.74;52415.47;5087568;28;19987;-68
2021/11/05 09:34:02;;;;;;;;;;;;;;;-144.99;93.14;52391.03;5087729;28;20015;-69
2021/11/05 09:36:29;;;;;;;;;;;;;;;-144.99;90.70;52407.31;5087027;28;20083;-69
2021/11/05 09:38:56;;;;;;;;;;;;;;;-144.99;89.59;52386.94;5087439;28;20000;-68
2021/11/05 09:41:22;;;;;;;;;;;;;;;-144.99;89.69;52388.97;5087345;28;19985;-68
2021/11/05 09:43:49;;;;;;;;;;;;;;;-144.99;89.58;52391.03;5086832;28;19992;-68
2021/11/05 09:46:15;;;;;;;;;;;;;;;-144.99;87.12;52415.47;5087031;28;19973;-68
2021/11/05 09:48:43;;;;;;;;;;;;;;;-144.99;85.52;52409.38;5087602;28;19993;-68
2021/11/05 09:51:11;;;;;;;;;;;;;;;-144.99;84.54;52409.38;5086966;28;19984;-68
2021/11/05 09:53:38;;;;;;;;;;;;;;;-144.99;84.03;52435.88;5105277;28;20000;-68
2021/11/05 09:56:05;;;;;;;;;;;;;;;-144.99;86.08;52431.78;5106961;28;19976;-68
2021/11/05 09:58:31;;;;;;;;;;;;;;;-144.99;85.18;52407.31;5107458;28;19984;-68
2021/11/05 10:00:58;;;;;;;;;;;;;;;-144.99;84.68;52403.25;5108313;28;19981;-68
2021/11/05 10:03:24;;;;;;;;;;;;;;;-144.99;82.72;52415.47;5103469;28;20150;-68
2021/11/05 10:05:53;;;;;;;;;;;;;;;-144.99;82.11;52419.56;5087457;28;19981;-68
2021/11/05 10:08:25;;;;;;;;;;;;;;;-144.99;81.28;52407.31;5088973;28;19984;-68
2021/11/05 10:10:52;;;;;;;;;;;;;;;-144.99;81.38;52472.56;5090686;28;20067;-68
2021/11/05 10:15:58;;;;;;;;;;;;;;;-144.99;83.95;52439.94;5018680;28;20522;-69
2021/11/05 10:18:26;;;;;;;;;;;;;;;-144.99;83.23;52446.06;5010064;28;19988;-69
2021/11/05 10:21:08;;;;;;;;;;;;;;;-144.99;83.41;52441.97;5015699;28;20009;-69
2021/11/05 10:23:36;;;;;;;;;;;;;;;-144.99;83.42;52452.16;5016819;28;20384;-70
2021/11/05 10:26:03;;;;;;;;;;;;;;;-144.99;84.42;52435.88;5016370;28;20311;-69
2021/11/05 10:28:30;;;;;;;;;;;;;;;-144.99;84.24;52460.31;5010927;28;20017;-69
2021/11/05 10:31:01;;;;;;;;;;;;;;;-144.99;83.11;52427.72;5010188;28;19982;-69
2021/11/05 10:33:30;;;;;;;;;;;;;;;-144.99;82.62;52386.94;5009907;28;20081;-69
2021/11/05 10:35:58;;;;;;;;;;;;;;;-144.99;83.45;52464.41;5009860;28;19988;-69
2021/11/05 10:38:26;;;;;;;;;;;;;;;-144.99;83.01;52456.25;5010381;28;19982;-69
2021/11/05 10:40:54;;;;;;;;;;;;;;;-144.99;82.42;52439.94;5010491;28;20009;-69
2021/11/05 10:43:30;;;;;;;;;;;;;;;-144.99;81.08;52403.25;5010143;28;20120;-69
2021/11/05 10:45:56;;;;;;;;;;;;;;;-144.99;78.71;52431.78;5006992;28;19988;-69
2021/11/05 10:48:26;;;;;;;;;;;;;;;-144.99;78.29;52456.25;5004495;28;19985;-69
2021/11/05 10:50:53;;;;;;;;;;;;;;;-144.99;77.97;52423.63;5011286;28;20048;-69
2021/11/05 10:53:20;;;;;;;;;;;;;;;-144.99;76.98;52456.25;5009695;28;20002;-69
2021/11/05 10:55:49;;;;;;;;;;;;;;;-144.99;77.10;52439.94;5010316;28;19986;-69
2021/11/05 10:58:16;;;;;;;;;;;;;;;-144.99;77.12;52460.31;5010406;28;19982;-69
2021/11/05 11:00:43;;;;;;;;;;;;;;;-144.99;77.88;52452.16;5010734;28;20012;-68
2021/11/05 11:03:12;;;;;;;;;;;;;;;-144.99;79.05;52468.47;5010605;28;19998;-69
2021/11/05 11:05:40;;;;;;;;;;;;;;;-144.99;80.04;52472.56;5009921;28;19986;-69
2021/11/05 11:08:10;;;;;;;;;;;;;;;-144.99;79.54;52460.31;5009330;28;20533;-69
2021/11/05 11:10:39;;;;;;;;;;;;;;;-144.99;80.51;52456.25;5010126;28;19982;-69
2021/11/05 11:13:26;;;;;;;;;;;;;;;-144.99;79.63;52444.03;5009203;28;20084;-71
2021/11/05 11:15:52;;;;;;;;;;;;;;;-144.99;79.40;52480.72;5009064;28;19990;-69
2021/11/05 11:18:18;;;;;;;;;;;;;;;-144.99;79.68;52464.41;5009718;28;20415;-69
2021/11/05 11:20:45;;;;;;;;;;;;;;;-144.99;79.65;52448.09;5009098;28;20051;-69
2021/11/05 11:23:12;;;;;;;;;;;;;;;-144.99;78.94;52423.63;5003182;28;19998;-69
2021/11/05 11:25:38;;;;;;;;;;;;;;;-144.99;77.41;52448.09;5002269;28;19986;-69
2021/11/05 11:28:05;;;;;;;;;;;;;;;-144.99;77.07;52476.63;5008994;28;20427;-68
2021/11/05 11:30:32;;;;;;;;;;;;;;;-144.99;75.50;52427.72;5009727;28;20450;-69
2021/11/05 11:32:59;;;;;;;;;;;;;;;-144.99;75.22;52427.72;5008485;28;20505;-69
2021/11/05 11:35:26;;;;;;;;;;;;;;;-144.99;73.49;52417.53;5009011;28;20342;-69
2021/11/05 11:37:53;;;;;;;;;;;;;;;-144.99;72.45;52419.56;5008584;28;20012;-68
2021/11/05 11:40:19;;;;;;;;;;;;;;;-144.99;71.56;52407.31;5008759;28;20008;-68
2021/11/05 11:42:47;;;;;;;;;;;;;;;-144.99;69.40;52439.94;5008089;28;20002;-69
2021/11/05 11:45:14;;;;;;;;;;;;;;;-144.99;70.53;52429.75;5008279;28;19989;-69
2021/11/05 11:47:42;;;;;;;;;;;;;;;-144.99;70.50;52480.72;4999821;28;19978;-68
2021/11/05 11:50:26;;;;;;;;;;;;;;;-144.99;69.53;52464.41;5008687;28;19990;-68
2021/11/05 11:52:56;;;;;;;;;;;;;;;-144.99;70.19;52497.00;5008582;28;20002;-68
2021/11/05 11:55:23;;;;;;;;;;;;;;;-144.99;70.56;52456.25;5008646;28;19981;-68
2021/11/05 11:57:49;;;;;;;;;;;;;;;-144.99;71.09;52452.16;5008376;28;19989;-68
2021/11/05 12:00:17;;;;;;;;;;;;;;;-144.99;71.30;52497.00;5008559;28;20493;-69
2021/11/05 12:02:46;;;;;;;;;;;;;;;-144.99;72.24;52480.72;5009139;28;20005;-70
2021/11/05 12:05:31;;;;;;;;;;;;;;;-144.99;71.79;52505.16;5008225;28;19985;-70
2021/11/05 12:08:18;;;;;;;;;;;;;;;-144.99;72.31;52456.25;5008414;28;19991;-68
2021/11/05 12:10:45;;;;;;;;;;;;;;;-144.99;72.24;52476.63;5008935;28;19986;-69
2021/11/05 12:13:31;;;;;;;;;;;;;;;-144.99;72.20;52476.63;5007624;28;19989;-68
2021/11/05 12:16:18;;;;;;;;;;;;;;;-144.99;71.49;52415.47;5000477;28;19992;-68
2021/11/05 12:19:03;;;;;;;;;;;;;;;-144.99;68.92;52252.44;5008685;28;20330;-70
2021/11/05 12:21:34;;;;;;;;;;;;;;;-144.99;63.12;52264.66;5008599;28;20083;-70
2021/11/05 12:24:20;;;;;;;;;;;;;;;-144.99;57.91;52256.50;5007899;28;19997;-68